Brangus — WDB4516 — position and weather

sailwx.info

Track history (hours):
 
Tides and Currents Weather Stations Pressure Air Temp Water Temp Dewpoint Dewpoint Depression Visibility Wind Speed Wind Dir Waves Ship Positions

Brangus

Owner: Great Lakes Dredge & Dock Company, Oak Brook, IL. More information available from US FCC via Universal Licensing System and Coast Guard Vessel Documentation Center.

Last reported at 2014-Oct-25 07:05 UTC. Time now 2014-Oct-25 11:22 UTC.
Position N 25°46' W 080°08'.

Length 46 m; draft 2.3 m.

Type: Tug. MMSI: 366899270.

Date/timePositionNaut miles runAvg speedWind from/ knotsBaromVisibWave heightAir tempDewpointWater temp
2014-Oct-25 07:05N 25°46' W 080°08'0 0.0
2014-Oct-25 06:11N 25°46' W 080°08'0 0.0
2014-Oct-25 04:10N 25°46' W 080°08'0 0.0
2014-Oct-24 22:30N 25°46' W 080°08'0 0.0
2014-Oct-24 20:24N 25°46' W 080°08'0 0.0
2014-Oct-24 13:19N 25°46' W 080°08'0 0.0
2014-Oct-24 10:32N 25°46' W 080°08'0 0.0
2014-Oct-24 09:30N 25°46' W 080°08'0 0.1
2014-Oct-24 08:25N 25°46' W 080°08'0 0.1
2014-Oct-24 06:10N 25°46' W 080°09'2 2.1
2014-Oct-24 05:25N 25°45' W 080°07'1 1.1
2014-Oct-24 04:33N 25°46' W 080°06'0 0.0
2014-Oct-24 03:33N 25°46' W 080°06'0 0.0
2014-Oct-24 02:31N 25°46' W 080°06'1 0.3
2014-Oct-24 00:04N 25°45' W 080°06'1 1.0
2014-Oct-23 23:33N 25°46' W 080°06'0 0.1
2014-Oct-23 22:33N 25°46' W 080°06'0 0.0
2014-Oct-23 21:19N 25°46' W 080°06'0 0.1
2014-Oct-23 20:28N 25°46' W 080°06'0 0.0
2014-Oct-23 19:31N 25°46' W 080°06'0 0.0
2014-Oct-23 18:22N 25°46' W 080°06'0 0.0
2014-Oct-23 17:32N 25°46' W 080°06'0 0.0
2014-Oct-23 16:33N 25°46' W 080°06'0 0.0
2014-Oct-23 15:32N 25°46' W 080°06'0 0.0
2014-Oct-23 14:33N 25°46' W 080°06'0 0.0
2014-Oct-23 13:33N 25°46' W 080°06'0 0.2
2014-Oct-23 12:32N 25°46' W 080°06'1 0.7
2014-Oct-23 11:12N 25°45' W 080°07'1 1.2
2014-Oct-23 10:33N 25°46' W 080°06'0 0.0
2014-Oct-23 09:34N 25°46' W 080°06'0 0.1
2014-Oct-23 08:21N 25°46' W 080°06'0 0.0
2014-Oct-23 07:24N 25°46' W 080°06'0 0.0
2014-Oct-23 06:25N 25°46' W 080°06'0 0.0
2014-Oct-23 03:34N 25°46' W 080°06'0 0.0
2014-Oct-23 02:17N 25°46' W 080°06'0 0.1
2014-Oct-23 01:28N 25°46' W 080°06'0 0.1
2014-Oct-23 00:22N 25°46' W 080°06'0 0.0
2014-Oct-22 20:32N 25°46' W 080°06'0 0.0
2014-Oct-22 19:10N 25°46' W 080°06'0 0.0
2014-Oct-22 15:17N 25°46' W 080°06'0 0.1
2014-Oct-22 14:30N 25°46' W 080°06'0 0.0
2014-Oct-22 13:18N 25°46' W 080°06'0 0.1
2014-Oct-22 12:33N 25°46' W 080°06'0 0.0
2014-Oct-22 11:33N 25°46' W 080°06'0 0.0
2014-Oct-22 10:29N 25°46' W 080°06'0 0.0
2014-Oct-22 09:33N 25°46' W 080°06'0 0.0
2014-Oct-22 08:33N 25°46' W 080°06'0 0.0
2014-Oct-22 07:31N 25°46' W 080°06'0 0.1
2014-Oct-22 06:33N 25°46' W 080°06'0 0.1
2014-Oct-22 05:33N 25°46' W 080°06'0 0.0
2014-Oct-22 04:33N 25°46' W 080°06'0 0.0
2014-Oct-22 03:33N 25°46' W 080°06'0 0.0
2014-Oct-22 02:31N 25°46' W 080°06'0 0.0
2014-Oct-22 01:33N 25°46' W 080°06'0 0.0
2014-Oct-22 00:20N 25°46' W 080°06'0 0.1
2014-Oct-21 23:31N 25°46' W 080°06'2 1.9
2014-Oct-21 22:32N 25°46' W 080°08'0 0.2
2014-Oct-21 20:08N 25°46' W 080°09'2 4.1
2014-Oct-21 19:33N 25°46' W 080°06'0 0.0
2014-Oct-21 18:33N 25°46' W 080°06'0 0.1
2014-Oct-21 17:33N 25°46' W 080°06'0 0.1
2014-Oct-21 16:33N 25°46' W 080°06'0 0.0
2014-Oct-21 15:33N 25°46' W 080°06'0 0.0
2014-Oct-21 14:33N 25°46' W 080°06'0 0.0
2014-Oct-21 13:34N 25°46' W 080°06'1 1.3
2014-Oct-21 12:32N 25°46' W 080°07'1 0.5
2014-Oct-21 11:12N 25°45' W 080°07'1 1.1
2014-Oct-21 10:34N 25°46' W 080°06'0 0.0
2014-Oct-21 09:32N 25°46' W 080°06'0 0.0
2014-Oct-21 08:33N 25°46' W 080°06'0 0.0
2014-Oct-21 07:33N 25°46' W 080°06'0 0.0
2014-Oct-21 06:33N 25°46' W 080°06'0 0.0
2014-Oct-21 05:33N 25°46' W 080°06'0 0.0
2014-Oct-21 04:33N 25°46' W 080°06'0 0.1
2014-Oct-21 03:33N 25°46' W 080°06'0 0.0
2014-Oct-20 23:33N 25°46' W 080°06'0 0.0
2014-Oct-20 12:30N 25°46' W 080°06'4 0.2
2014-Oct-19 13:10N 25°46' W 080°10'0 0.1
2014-Oct-19 11:31N 25°46' W 080°10'1 0.2
2014-Oct-19 07:25N 25°46' W 080°09'3 0.2
2014-Oct-18 18:33N 25°46' W 080°06'0 0.0
2014-Oct-18 17:33N 25°46' W 080°06'0 0.4
2014-Oct-18 16:33N 25°46' W 080°06'0 0.2
2014-Oct-18 15:33N 25°46' W 080°06'2 1.0
2014-Oct-18 13:03N 25°46' W 080°09'2 3.3
2014-Oct-18 12:33N 25°45' W 080°07'1 0.3
2014-Oct-18 08:33N 25°46' W 080°06'0 0.0
2014-Oct-18 07:33N 25°46' W 080°06'0 0.0
2014-Oct-18 06:33N 25°46' W 080°06'0 0.0
2014-Oct-18 00:27N 25°46' W 080°06'0 0.0
2014-Oct-17 23:28N 25°46' W 080°06'0 0.0
2014-Oct-17 22:12N 25°46' W 080°06'0 0.0
2014-Oct-17 19:33N 25°46' W 080°06'0 0.0
2014-Oct-17 18:33N 25°46' W 080°06'0 0.1
2014-Oct-17 17:33N 25°46' W 080°06'0 0.1
2014-Oct-17 16:27N 25°46' W 080°06'0 0.1
2014-Oct-17 15:16N 25°46' W 080°06'2 0.6
2014-Oct-17 12:31N 25°46' W 080°08'1 0.7
2014-Oct-17 10:28N 25°46' W 080°06'0 0.2
2014-Oct-17 09:33N 25°46' W 080°06'0 0.0
2014-Oct-17 08:33N 25°46' W 080°06'0 0.0
2014-Oct-17 05:28N 25°46' W 080°06'0 0.0
2014-Oct-16 23:28N 25°46' W 080°06'0 0.1
2014-Oct-16 22:33N 25°46' W 080°06'0 0.1
2014-Oct-16 21:31N 25°46' W 080°06'0 0.0
2014-Oct-16 20:33N 25°46' W 080°06'0 0.1
2014-Oct-16 19:24N 25°46' W 080°06'0 0.0
2014-Oct-16 18:33N 25°46' W 080°06'0 0.0
2014-Oct-16 17:33N 25°46' W 080°06'1 0.2
2014-Oct-16 14:03N 25°45' W 080°07'1 1.8
2014-Oct-16 13:32N 25°46' W 080°06'0 0.0
2014-Oct-16 12:30N 25°46' W 080°06'  
Track history (hours):
 
Tides and Currents Weather Stations Pressure Air Temp Water Temp Dewpoint Dewpoint Depression Visibility Wind Speed Wind Dir Waves Ship Positions

Brangus

Owner: Great Lakes Dredge & Dock Company, Oak Brook, IL. More information available from US FCC via Universal Licensing System and Coast Guard Vessel Documentation Center.

Last reported at 2014-Oct-25 07:05 UTC. Time now 2014-Oct-25 11:22 UTC.
Position N 25°46' W 080°08'.

Length 46 m; draft 2.3 m.

Type: Tug. MMSI: 366899270.

Date/timePositionNaut miles runAvg speedWind from/ knotsBaromVisibWave heightAir tempDewpointWater temp
2014-Oct-25 07:05N 25°46' W 080°08'0 0.0
2014-Oct-25 06:11N 25°46' W 080°08'0 0.0
2014-Oct-25 04:10N 25°46' W 080°08'0 0.0
2014-Oct-24 22:30N 25°46' W 080°08'0 0.0
2014-Oct-24 20:24N 25°46' W 080°08'0 0.0
2014-Oct-24 13:19N 25°46' W 080°08'0 0.0
2014-Oct-24 10:32N 25°46' W 080°08'0 0.0
2014-Oct-24 09:30N 25°46' W 080°08'0 0.1
2014-Oct-24 08:25N 25°46' W 080°08'0 0.1
2014-Oct-24 06:10N 25°46' W 080°09'2 2.1
2014-Oct-24 05:25N 25°45' W 080°07'1 1.1
2014-Oct-24 04:33N 25°46' W 080°06'0 0.0
2014-Oct-24 03:33N 25°46' W 080°06'0 0.0
2014-Oct-24 02:31N 25°46' W 080°06'1 0.3
2014-Oct-24 00:04N 25°45' W 080°06'1 1.0
2014-Oct-23 23:33N 25°46' W 080°06'0 0.1
2014-Oct-23 22:33N 25°46' W 080°06'0 0.0
2014-Oct-23 21:19N 25°46' W 080°06'0 0.1
2014-Oct-23 20:28N 25°46' W 080°06'0 0.0
2014-Oct-23 19:31N 25°46' W 080°06'0 0.0
2014-Oct-23 18:22N 25°46' W 080°06'0 0.0
2014-Oct-23 17:32N 25°46' W 080°06'0 0.0
2014-Oct-23 16:33N 25°46' W 080°06'0 0.0
2014-Oct-23 15:32N 25°46' W 080°06'0 0.0
2014-Oct-23 14:33N 25°46' W 080°06'0 0.0
2014-Oct-23 13:33N 25°46' W 080°06'0 0.2
2014-Oct-23 12:32N 25°46' W 080°06'1 0.7
2014-Oct-23 11:12N 25°45' W 080°07'1 1.2
2014-Oct-23 10:33N 25°46' W 080°06'0 0.0
2014-Oct-23 09:34N 25°46' W 080°06'0 0.1
2014-Oct-23 08:21N 25°46' W 080°06'0 0.0
2014-Oct-23 07:24N 25°46' W 080°06'0 0.0
2014-Oct-23 06:25N 25°46' W 080°06'0 0.0
2014-Oct-23 03:34N 25°46' W 080°06'0 0.0
2014-Oct-23 02:17N 25°46' W 080°06'0 0.1
2014-Oct-23 01:28N 25°46' W 080°06'0 0.1
2014-Oct-23 00:22N 25°46' W 080°06'0 0.0
2014-Oct-22 20:32N 25°46' W 080°06'0 0.0
2014-Oct-22 19:10N 25°46' W 080°06'0 0.0
2014-Oct-22 15:17N 25°46' W 080°06'0 0.1
2014-Oct-22 14:30N 25°46' W 080°06'0 0.0
2014-Oct-22 13:18N 25°46' W 080°06'0 0.1
2014-Oct-22 12:33N 25°46' W 080°06'0 0.0
2014-Oct-22 11:33N 25°46' W 080°06'0 0.0
2014-Oct-22 10:29N 25°46' W 080°06'0 0.0
2014-Oct-22 09:33N 25°46' W 080°06'0 0.0
2014-Oct-22 08:33N 25°46' W 080°06'0 0.0
2014-Oct-22 07:31N 25°46' W 080°06'0 0.1
2014-Oct-22 06:33N 25°46' W 080°06'0 0.1
2014-Oct-22 05:33N 25°46' W 080°06'0 0.0
2014-Oct-22 04:33N 25°46' W 080°06'0 0.0
2014-Oct-22 03:33N 25°46' W 080°06'0 0.0
2014-Oct-22 02:31N 25°46' W 080°06'0 0.0
2014-Oct-22 01:33N 25°46' W 080°06'0 0.0
2014-Oct-22 00:20N 25°46' W 080°06'0 0.1
2014-Oct-21 23:31N 25°46' W 080°06'2 1.9
2014-Oct-21 22:32N 25°46' W 080°08'0 0.2
2014-Oct-21 20:08N 25°46' W 080°09'2 4.1
2014-Oct-21 19:33N 25°46' W 080°06'0 0.0
2014-Oct-21 18:33N 25°46' W 080°06'0 0.1
2014-Oct-21 17:33N 25°46' W 080°06'0 0.1
2014-Oct-21 16:33N 25°46' W 080°06'0 0.0
2014-Oct-21 15:33N 25°46' W 080°06'0 0.0
2014-Oct-21 14:33N 25°46' W 080°06'0 0.0
2014-Oct-21 13:34N 25°46' W 080°06'1 1.3
2014-Oct-21 12:32N 25°46' W 080°07'1 0.5
2014-Oct-21 11:12N 25°45' W 080°07'1 1.1
2014-Oct-21 10:34N 25°46' W 080°06'0 0.0
2014-Oct-21 09:32N 25°46' W 080°06'0 0.0
2014-Oct-21 08:33N 25°46' W 080°06'0 0.0
2014-Oct-21 07:33N 25°46' W 080°06'0 0.0
2014-Oct-21 06:33N 25°46' W 080°06'0 0.0
2014-Oct-21 05:33N 25°46' W 080°06'0 0.0
2014-Oct-21 04:33N 25°46' W 080°06'0 0.1
2014-Oct-21 03:33N 25°46' W 080°06'0 0.0
2014-Oct-20 23:33N 25°46' W 080°06'0 0.0
2014-Oct-20 12:30N 25°46' W 080°06'4 0.2
2014-Oct-19 13:10N 25°46' W 080°10'0 0.1
2014-Oct-19 11:31N 25°46' W 080°10'1 0.2
2014-Oct-19 07:25N 25°46' W 080°09'3 0.2
2014-Oct-18 18:33N 25°46' W 080°06'0 0.0
2014-Oct-18 17:33N 25°46' W 080°06'0 0.4
2014-Oct-18 16:33N 25°46' W 080°06'0 0.2
2014-Oct-18 15:33N 25°46' W 080°06'2 1.0
2014-Oct-18 13:03N 25°46' W 080°09'2 3.3
2014-Oct-18 12:33N 25°45' W 080°07'1 0.3
2014-Oct-18 08:33N 25°46' W 080°06'0 0.0
2014-Oct-18 07:33N 25°46' W 080°06'0 0.0
2014-Oct-18 06:33N 25°46' W 080°06'0 0.0
2014-Oct-18 00:27N 25°46' W 080°06'0 0.0
2014-Oct-17 23:28N 25°46' W 080°06'0 0.0
2014-Oct-17 22:12N 25°46' W 080°06'0 0.0
2014-Oct-17 19:33N 25°46' W 080°06'0 0.0
2014-Oct-17 18:33N 25°46' W 080°06'0 0.1
2014-Oct-17 17:33N 25°46' W 080°06'0 0.1
2014-Oct-17 16:27N 25°46' W 080°06'0 0.1
2014-Oct-17 15:16N 25°46' W 080°06'2 0.6
2014-Oct-17 12:31N 25°46' W 080°08'1 0.7
2014-Oct-17 10:28N 25°46' W 080°06'0 0.2
2014-Oct-17 09:33N 25°46' W 080°06'0 0.0
2014-Oct-17 08:33N 25°46' W 080°06'0 0.0
2014-Oct-17 05:28N 25°46' W 080°06'0 0.0
2014-Oct-16 23:28N 25°46' W 080°06'0 0.1
2014-Oct-16 22:33N 25°46' W 080°06'0 0.1
2014-Oct-16 21:31N 25°46' W 080°06'0 0.0
2014-Oct-16 20:33N 25°46' W 080°06'0 0.1
2014-Oct-16 19:24N 25°46' W 080°06'0 0.0
2014-Oct-16 18:33N 25°46' W 080°06'0 0.0
2014-Oct-16 17:33N 25°46' W 080°06'1 0.2
2014-Oct-16 14:03N 25°45' W 080°07'1 1.8
2014-Oct-16 13:32N 25°46' W 080°06'0 0.0
2014-Oct-16 12:30N 25°46' W 080°06'  

Dump ship's entire track history